Terminal Aerodrome Forecast
Issued by NWS

Home | Current Version | Previous Version | Text Only | Print | Product List | Glossary On
Versions: 1 2 3 4 5 6 7 8 9 10 11 12 13 14 15 16 17 18 19 20 21 22 23 24 25 26 27 28 29 30 31 32 33 34 35 36 37 38 39 40 41 42 43 44
542
FTUS42 KMFL 070742 AAA
TAFMIA
TAF AMD
KMIA 070742Z 0708/0806 29012G18KT P6SM VCSH SCT012 BKN070 OVC090
      TEMPO 0708/0709 4SM RA SCT005 BKN020
     FM071000 30012G20KT P6SM BKN030 OVC080
     FM071600 32016G28KT P6SM BKN250
     FM072300 31010KT P6SM SCT250=

USA.gov is the U.S. government's official web portal to all federal, state and local government web resources and services.